sensor_id;sensor_type;location;lat;lon;timestamp;pressure;altitude;pressure_sealevel;temperature;humidity
60920;BME280;59039;52.108;19.942;2024-02-23T00:01:12;98461.81;;;8.56;81.00
60920;BME280;59039;52.108;19.942;2024-02-23T00:03:38;98465.10;;;8.56;81.51
60920;BME280;59039;52.108;19.942;2024-02-23T00:06:03;98463.14;;;8.56;80.45
60920;BME280;59039;52.108;19.942;2024-02-23T00:08:28;98464.39;;;8.56;81.08
60920;BME280;59039;52.108;19.942;2024-02-23T00:10:54;98459.97;;;8.55;81.23
60920;BME280;59039;52.108;19.942;2024-02-23T00:13:19;98459.14;;;8.55;80.82
60920;BME280;59039;52.108;19.942;2024-02-23T00:15:44;98455.47;;;8.54;80.77
60920;BME280;59039;52.108;19.942;2024-02-23T00:18:09;98458.08;;;8.53;80.99
60920;BME280;59039;52.108;19.942;2024-02-23T00:20:34;98454.45;;;8.53;81.24
60920;BME280;59039;52.108;19.942;2024-02-23T00:23:02;98450.98;;;8.52;81.67
60920;BME280;59039;52.108;19.942;2024-02-23T00:25:27;98451.52;;;8.52;80.52
60920;BME280;59039;52.108;19.942;2024-02-23T00:27:52;98445.95;;;8.52;81.30
60920;BME280;59039;52.108;19.942;2024-02-23T00:30:18;98447.77;;;8.52;81.00
60920;BME280;59039;52.108;19.942;2024-02-23T00:32:43;98437.42;;;8.51;80.31
60920;BME280;59039;52.108;19.942;2024-02-23T00:35:08;98432.40;;;8.52;81.23
60920;BME280;59039;52.108;19.942;2024-02-23T00:37:33;98432.48;;;8.51;80.96
60920;BME280;59039;52.108;19.942;2024-02-23T00:39:58;98431.02;;;8.51;81.38
60920;BME280;59039;52.108;19.942;2024-02-23T00:42:23;98426.59;;;8.51;80.64
60920;BME280;59039;52.108;19.942;2024-02-23T00:44:49;98425.31;;;8.51;80.33
60920;BME280;59039;52.108;19.942;2024-02-23T00:47:14;98425.60;;;8.51;80.75
60920;BME280;59039;52.108;19.942;2024-02-23T00:49:39;98424.58;;;8.53;81.33
60920;BME280;59039;52.108;19.942;2024-02-23T00:52:04;98419.84;;;8.53;81.09
60920;BME280;59039;52.108;19.942;2024-02-23T00:54:30;98416.45;;;8.52;80.16
60920;BME280;59039;52.108;19.942;2024-02-23T00:56:55;98413.62;;;8.53;80.90
60920;BME280;59039;52.108;19.942;2024-02-23T00:59:20;98411.36;;;8.54;81.40
60920;BME280;59039;52.108;19.942;2024-02-23T01:01:45;98407.86;;;8.55;81.02
60920;BME280;59039;52.108;19.942;2024-02-23T01:04:10;98408.45;;;8.54;81.16
60920;BME280;59039;52.108;19.942;2024-02-23T01:06:36;98408.78;;;8.55;81.06
60920;BME280;59039;52.108;19.942;2024-02-23T01:09:01;98409.77;;;8.55;81.23
60920;BME280;59039;52.108;19.942;2024-02-23T01:11:26;98407.23;;;8.55;81.11
60920;BME280;59039;52.108;19.942;2024-02-23T01:13:51;98405.70;;;8.55;81.32
60920;BME280;59039;52.108;19.942;2024-02-23T01:16:17;98410.61;;;8.54;81.10
60920;BME280;59039;52.108;19.942;2024-02-23T01:18:42;98408.50;;;8.54;81.16
60920;BME280;59039;52.108;19.942;2024-02-23T01:21:08;98411.84;;;8.53;80.53
60920;BME280;59039;52.108;19.942;2024-02-23T01:23:33;98406.50;;;8.53;80.90
60920;BME280;59039;52.108;19.942;2024-02-23T01:25:58;98410.49;;;8.52;80.97
60920;BME280;59039;52.108;19.942;2024-02-23T01:28:23;98397.51;;;8.52;81.18
60920;BME280;59039;52.108;19.942;2024-02-23T01:30:49;98396.80;;;8.52;81.54
60920;BME280;59039;52.108;19.942;2024-02-23T01:33:14;98402.83;;;8.52;80.83
60920;BME280;59039;52.108;19.942;2024-02-23T01:35:39;98393.42;;;8.52;81.27
60920;BME280;59039;52.108;19.942;2024-02-23T01:38:04;98396.30;;;8.52;81.52
60920;BME280;59039;52.108;19.942;2024-02-23T01:40:29;98390.72;;;8.52;81.44
60920;BME280;59039;52.108;19.942;2024-02-23T01:43:04;98390.87;;;8.52;81.42
60920;BME280;59039;52.108;19.942;2024-02-23T01:45:31;98385.80;;;8.52;81.48
60920;BME280;59039;52.108;19.942;2024-02-23T01:47:57;98390.84;;;8.52;81.52
60920;BME280;59039;52.108;19.942;2024-02-23T01:50:23;98390.65;;;8.54;81.96
60920;BME280;59039;52.108;19.942;2024-02-23T01:52:49;98387.51;;;8.56;81.47
60920;BME280;59039;52.108;19.942;2024-02-23T01:55:14;98391.11;;;8.59;82.41
60920;BME280;59039;52.108;19.942;2024-02-23T01:57:40;98383.73;;;8.62;82.23
60920;BME280;59039;52.108;19.942;2024-02-23T02:00:07;98385.08;;;8.64;82.23
60920;BME280;59039;52.108;19.942;2024-02-23T02:02:33;98383.23;;;8.66;82.03
60920;BME280;59039;52.108;19.942;2024-02-23T02:04:58;98388.45;;;8.67;81.30
60920;BME280;59039;52.108;19.942;2024-02-23T02:07:23;98390.55;;;8.69;81.42
60920;BME280;59039;52.108;19.942;2024-02-23T02:09:49;98391.21;;;8.71;82.06
60920;BME280;59039;52.108;19.942;2024-02-23T02:12:14;98393.92;;;8.74;82.42
60920;BME280;59039;52.108;19.942;2024-02-23T02:14:39;98395.66;;;8.76;82.33
60920;BME280;59039;52.108;19.942;2024-02-23T02:17:04;98396.30;;;8.77;81.95
60920;BME280;59039;52.108;19.942;2024-02-23T02:19:29;98397.34;;;8.80;81.58
60920;BME280;59039;52.108;19.942;2024-02-23T02:21:55;98396.44;;;8.83;82.60
60920;BME280;59039;52.108;19.942;2024-02-23T02:24:21;98399.00;;;8.84;82.93
60920;BME280;59039;52.108;19.942;2024-02-23T02:26:46;98398.30;;;8.85;82.74
60920;BME280;59039;52.108;19.942;2024-02-23T02:29:13;98397.40;;;8.87;82.35
60920;BME280;59039;52.108;19.942;2024-02-23T02:31:39;98403.57;;;8.88;82.61
60920;BME280;59039;52.108;19.942;2024-02-23T02:34:04;98401.25;;;8.89;82.69
60920;BME280;59039;52.108;19.942;2024-02-23T02:36:29;98409.21;;;8.89;82.76
60920;BME280;59039;52.108;19.942;2024-02-23T02:38:54;98410.66;;;8.89;83.05
60920;BME280;59039;52.108;19.942;2024-02-23T02:41:23;98413.49;;;8.88;82.87
60920;BME280;59039;52.108;19.942;2024-02-23T02:43:49;98413.77;;;8.87;83.41
60920;BME280;59039;52.108;19.942;2024-02-23T02:46:15;98417.58;;;8.84;83.34
60920;BME280;59039;52.108;19.942;2024-02-23T02:48:40;98416.10;;;8.83;83.37
60920;BME280;59039;52.108;19.942;2024-02-23T02:51:05;98417.79;;;8.83;83.68
60920;BME280;59039;52.108;19.942;2024-02-23T02:53:30;98410.48;;;8.82;83.78
60920;BME280;59039;52.108;19.942;2024-02-23T02:55:55;98410.60;;;8.82;84.32
60920;BME280;59039;52.108;19.942;2024-02-23T02:58:21;98413.65;;;8.82;84.66
60920;BME280;59039;52.108;19.942;2024-02-23T03:00:46;98412.48;;;8.82;84.97
60920;BME280;59039;52.108;19.942;2024-02-23T03:03:11;98422.83;;;8.80;84.79
60920;BME280;59039;52.108;19.942;2024-02-23T03:05:36;98422.85;;;8.77;84.81
60920;BME280;59039;52.108;19.942;2024-02-23T03:08:01;98423.59;;;8.76;84.93
60920;BME280;59039;52.108;19.942;2024-02-23T03:10:27;98430.28;;;8.75;85.11
60920;BME280;59039;52.108;19.942;2024-02-23T03:12:52;98425.92;;;8.72;85.24
60920;BME280;59039;52.108;19.942;2024-02-23T03:15:17;98425.95;;;8.70;85.62
60920;BME280;59039;52.108;19.942;2024-02-23T03:17:42;98429.97;;;8.69;85.78
60920;BME280;59039;52.108;19.942;2024-02-23T03:20:08;98427.70;;;8.67;85.90
60920;BME280;59039;52.108;19.942;2024-02-23T03:22:34;98427.94;;;8.65;86.10
60920;BME280;59039;52.108;19.942;2024-02-23T03:25:00;98428.48;;;8.63;86.19
60920;BME280;59039;52.108;19.942;2024-02-23T03:27:28;98425.30;;;8.63;86.37
60920;BME280;59039;52.108;19.942;2024-02-23T03:29:53;98429.64;;;8.63;86.51
60920;BME280;59039;52.108;19.942;2024-02-23T03:32:19;98430.52;;;8.63;86.81
60920;BME280;59039;52.108;19.942;2024-02-23T03:34:44;98433.77;;;8.63;87.02
60920;BME280;59039;52.108;19.942;2024-02-23T03:37:09;98438.33;;;8.64;87.20
60920;BME280;59039;52.108;19.942;2024-02-23T03:39:34;98436.89;;;8.65;87.26
60920;BME280;59039;52.108;19.942;2024-02-23T03:41:59;98436.52;;;8.65;87.55
60920;BME280;59039;52.108;19.942;2024-02-23T03:44:25;98437.77;;;8.65;87.52
60920;BME280;59039;52.108;19.942;2024-02-23T03:46:50;98436.14;;;8.67;87.87
60920;BME280;59039;52.108;19.942;2024-02-23T03:49:15;98440.61;;;8.67;87.74
60920;BME280;59039;52.108;19.942;2024-02-23T06:26:07;98608.73;;;10.12;85.15
60920;BME280;59039;52.108;19.942;2024-02-23T06:28:32;98614.27;;;9.90;85.52
60920;BME280;59039;52.108;19.942;2024-02-23T06:30:58;98615.27;;;9.76;85.73
60920;BME280;59039;52.108;19.942;2024-02-23T06:33:23;98615.35;;;9.64;86.05
60920;BME280;59039;52.108;19.942;2024-02-23T06:35:48;98622.85;;;9.54;86.14
60920;BME280;59039;52.108;19.942;2024-02-23T06:38:14;98626.17;;;9.46;86.47
60920;BME280;59039;52.108;19.942;2024-02-23T06:40:39;98624.40;;;9.36;86.50
60920;BME280;59039;52.108;19.942;2024-02-23T06:43:04;98629.36;;;9.29;86.72
60920;BME280;59039;52.108;19.942;2024-02-23T06:45:29;98637.77;;;9.20;86.97
60920;BME280;59039;52.108;19.942;2024-02-23T06:47:54;98634.91;;;9.14;86.99
60920;BME280;59039;52.108;19.942;2024-02-23T06:50:20;98646.49;;;9.08;87.17
60920;BME280;59039;52.108;19.942;2024-02-23T06:52:45;98649.07;;;9.01;87.69
60920;BME280;59039;52.108;19.942;2024-02-23T06:55:10;98643.69;;;8.94;87.71
60920;BME280;59039;52.108;19.942;2024-02-23T06:57:35;98648.34;;;8.90;88.20
60920;BME280;59039;52.108;19.942;2024-02-23T07:00:00;98649.67;;;8.87;88.24
60920;BME280;59039;52.108;19.942;2024-02-23T07:02:26;98657.80;;;8.84;88.32
60920;BME280;59039;52.108;19.942;2024-02-23T07:04:51;98664.89;;;8.82;88.82
60920;BME280;59039;52.108;19.942;2024-02-23T07:07:16;98668.36;;;8.80;88.86
60920;BME280;59039;52.108;19.942;2024-02-23T07:09:41;98671.26;;;8.78;89.13
60920;BME280;59039;52.108;19.942;2024-02-23T07:12:07;98674.09;;;8.77;89.32
60920;BME280;59039;52.108;19.942;2024-02-23T07:14:32;98677.08;;;8.76;89.28
60920;BME280;59039;52.108;19.942;2024-02-23T07:16:57;98684.56;;;8.76;89.49
60920;BME280;59039;52.108;19.942;2024-02-23T07:19:22;98691.75;;;8.74;89.96
60920;BME280;59039;52.108;19.942;2024-02-23T07:21:48;98697.93;;;8.74;89.81
60920;BME280;59039;52.108;19.942;2024-02-23T07:24:13;98697.55;;;8.74;89.84
60920;BME280;59039;52.108;19.942;2024-02-23T07:26:38;98701.79;;;8.74;89.98
60920;BME280;59039;52.108;19.942;2024-02-23T07:29:04;98706.83;;;8.74;90.23
60920;BME280;59039;52.108;19.942;2024-02-23T07:31:29;98709.88;;;8.74;90.30
60920;BME280;59039;52.108;19.942;2024-02-23T07:33:55;98717.39;;;8.75;90.74
60920;BME280;59039;52.108;19.942;2024-02-23T07:36:20;98721.85;;;8.75;90.85
60920;BME280;59039;52.108;19.942;2024-02-23T07:38:45;98725.83;;;8.76;90.94
60920;BME280;59039;52.108;19.942;2024-02-23T07:41:11;98725.55;;;8.77;90.88
60920;BME280;59039;52.108;19.942;2024-02-23T07:43:36;98734.42;;;8.77;91.23
60920;BME280;59039;52.108;19.942;2024-02-23T07:46:02;98739.17;;;8.77;91.31
60920;BME280;59039;52.108;19.942;2024-02-23T07:48:27;98739.16;;;8.77;91.62
60920;BME280;59039;52.108;19.942;2024-02-23T07:50:52;98741.35;;;8.78;91.56
60920;BME280;59039;52.108;19.942;2024-02-23T07:53:18;98744.00;;;8.79;91.69
60920;BME280;59039;52.108;19.942;2024-02-23T07:55:43;98744.05;;;8.80;92.08
60920;BME280;59039;52.108;19.942;2024-02-23T07:58:08;98751.01;;;8.82;92.20
60920;BME280;59039;52.108;19.942;2024-02-23T08:00:33;98751.39;;;8.85;92.36
60920;BME280;59039;52.108;19.942;2024-02-23T08:02:58;98756.38;;;8.87;92.41
60920;BME280;59039;52.108;19.942;2024-02-23T08:05:24;98756.02;;;8.88;92.62
60920;BME280;59039;52.108;19.942;2024-02-23T08:07:49;98758.48;;;8.91;92.61
60920;BME280;59039;52.108;19.942;2024-02-23T08:10:14;98764.08;;;8.92;92.54
60920;BME280;59039;52.108;19.942;2024-02-23T08:12:40;98770.06;;;8.93;92.61
60920;BME280;59039;52.108;19.942;2024-02-23T08:15:05;98774.80;;;8.95;93.09
60920;BME280;59039;52.108;19.942;2024-02-23T08:17:31;98772.22;;;8.95;93.04
60920;BME280;59039;52.108;19.942;2024-02-23T08:19:56;98773.38;;;8.95;93.27
60920;BME280;59039;52.108;19.942;2024-02-23T08:22:21;98775.27;;;8.98;93.35
60920;BME280;59039;52.108;19.942;2024-02-23T08:24:46;98785.02;;;9.01;93.43
60920;BME280;59039;52.108;19.942;2024-02-23T08:27:12;98790.14;;;9.04;93.54
60920;BME280;59039;52.108;19.942;2024-02-23T08:29:38;98794.13;;;9.05;93.67
60920;BME280;59039;52.108;19.942;2024-02-23T08:32:03;98796.12;;;9.07;93.62
60920;BME280;59039;52.108;19.942;2024-02-23T08:34:28;98797.52;;;9.08;93.78
60920;BME280;59039;52.108;19.942;2024-02-23T08:36:54;98797.73;;;9.11;93.69
60920;BME280;59039;52.108;19.942;2024-02-23T08:39:19;98797.37;;;9.13;93.83
60920;BME280;59039;52.108;19.942;2024-02-23T08:41:44;98797.62;;;9.15;93.77
60920;BME280;59039;52.108;19.942;2024-02-23T08:44:09;98799.98;;;9.16;93.75
60920;BME280;59039;52.108;19.942;2024-02-23T08:46:34;98805.77;;;9.18;93.70
60920;BME280;59039;52.108;19.942;2024-02-23T08:49:00;98810.84;;;9.19;93.55
60920;BME280;59039;52.108;19.942;2024-02-23T08:51:25;98816.41;;;9.19;93.67
60920;BME280;59039;52.108;19.942;2024-02-23T08:53:50;98815.98;;;9.22;93.74
60920;BME280;59039;52.108;19.942;2024-02-23T08:56:15;98821.25;;;9.23;93.76
60920;BME280;59039;52.108;19.942;2024-02-23T08:58:40;98818.22;;;9.24;93.67
60920;BME280;59039;52.108;19.942;2024-02-23T09:01:06;98819.80;;;9.26;93.59
60920;BME280;59039;52.108;19.942;2024-02-23T09:03:31;98819.89;;;9.27;93.63
60920;BME280;59039;52.108;19.942;2024-02-23T09:05:56;98824.23;;;9.28;93.67
60920;BME280;59039;52.108;19.942;2024-02-23T09:08:22;98829.15;;;9.29;93.63
60920;BME280;59039;52.108;19.942;2024-02-23T09:10:47;98832.05;;;9.31;93.67
60920;BME280;59039;52.108;19.942;2024-02-23T09:13:12;98835.69;;;9.32;93.71
60920;BME280;59039;52.108;19.942;2024-02-23T09:15:37;98841.77;;;9.34;93.84
60920;BME280;59039;52.108;19.942;2024-02-23T09:18:03;98845.05;;;9.35;93.76
60920;BME280;59039;52.108;19.942;2024-02-23T09:20:28;98842.66;;;9.37;93.85
60920;BME280;59039;52.108;19.942;2024-02-23T09:22:53;98849.39;;;9.39;93.95
60920;BME280;59039;52.108;19.942;2024-02-23T09:25:19;98848.23;;;9.42;93.92
60920;BME280;59039;52.108;19.942;2024-02-23T09:27:44;98849.18;;;9.45;93.85
60920;BME280;59039;52.108;19.942;2024-02-23T09:30:13;98854.45;;;9.47;93.96
60920;BME280;59039;52.108;19.942;2024-02-23T09:32:38;98857.73;;;9.50;93.99
60920;BME280;59039;52.108;19.942;2024-02-23T09:35:04;98860.19;;;9.52;94.01
60920;BME280;59039;52.108;19.942;2024-02-23T09:37:30;98861.77;;;9.54;93.88
60920;BME280;59039;52.108;19.942;2024-02-23T09:39:55;98862.45;;;9.56;93.87
60920;BME280;59039;52.108;19.942;2024-02-23T09:42:22;98862.40;;;9.58;94.05
60920;BME280;59039;52.108;19.942;2024-02-23T09:44:49;98862.99;;;9.59;93.82
60920;BME280;59039;52.108;19.942;2024-02-23T09:47:18;98871.25;;;9.61;93.92
60920;BME280;59039;52.108;19.942;2024-02-23T09:49:43;98874.98;;;9.63;93.93
60920;BME280;59039;52.108;19.942;2024-02-23T09:52:09;98879.54;;;9.66;94.01
60920;BME280;59039;52.108;19.942;2024-02-23T09:54:36;98883.40;;;9.70;94.10
60920;BME280;59039;52.108;19.942;2024-02-23T09:57:08;98885.15;;;9.73;93.98
60920;BME280;59039;52.108;19.942;2024-02-23T09:59:34;98888.49;;;9.76;94.22
60920;BME280;59039;52.108;19.942;2024-02-23T10:02:01;98892.75;;;9.80;94.27
60920;BME280;59039;52.108;19.942;2024-02-23T10:04:27;98895.04;;;9.82;93.78
60920;BME280;59039;52.108;19.942;2024-02-23T10:06:52;98896.81;;;9.86;94.29
60920;BME280;59039;52.108;19.942;2024-02-23T10:09:17;98902.06;;;9.89;94.29
60920;BME280;59039;52.108;19.942;2024-02-23T10:11:42;98908.36;;;9.92;94.14
60920;BME280;59039;52.108;19.942;2024-02-23T10:14:08;98912.99;;;9.94;94.10
60920;BME280;59039;52.108;19.942;2024-02-23T10:16:33;98915.85;;;9.95;93.78
60920;BME280;59039;52.108;19.942;2024-02-23T10:18:58;98919.39;;;9.98;93.92
60920;BME280;59039;52.108;19.942;2024-02-23T10:21:23;98920.77;;;10.00;93.69
60920;BME280;59039;52.108;19.942;2024-02-23T10:23:49;98923.84;;;10.02;93.93
60920;BME280;59039;52.108;19.942;2024-02-23T10:26:14;98924.67;;;10.05;93.90
60920;BME280;59039;52.108;19.942;2024-02-23T10:28:39;98932.46;;;10.07;93.65
60920;BME280;59039;52.108;19.942;2024-02-23T10:31:05;98930.46;;;10.08;93.88
60920;BME280;59039;52.108;19.942;2024-02-23T10:33:31;98932.02;;;10.08;93.62
60920;BME280;59039;52.108;19.942;2024-02-23T10:35:57;98939.89;;;10.09;93.87
60920;BME280;59039;52.108;19.942;2024-02-23T10:38:23;98941.67;;;10.09;93.87
60920;BME280;59039;52.108;19.942;2024-02-23T10:40:50;98943.28;;;10.10;93.70
60920;BME280;59039;52.108;19.942;2024-02-23T10:43:19;98945.58;;;10.10;93.58
60920;BME280;59039;52.108;19.942;2024-02-23T10:45:46;98942.38;;;10.11;93.46
60920;BME280;59039;52.108;19.942;2024-02-23T10:48:11;98938.58;;;10.11;93.60
60920;BME280;59039;52.108;19.942;2024-02-23T10:50:37;98941.92;;;10.12;93.45
60920;BME280;59039;52.108;19.942;2024-02-23T10:53:07;98950.48;;;10.11;93.54
60920;BME280;59039;52.108;19.942;2024-02-23T10:55:33;98952.06;;;10.12;93.30
60920;BME280;59039;52.108;19.942;2024-02-23T10:57:58;98954.09;;;10.13;93.25
60920;BME280;59039;52.108;19.942;2024-02-23T11:00:24;98952.61;;;10.15;93.41
60920;BME280;59039;52.108;19.942;2024-02-23T11:02:51;98957.89;;;10.16;93.38
60920;BME280;59039;52.108;19.942;2024-02-23T11:05:18;98959.48;;;10.18;93.43
60920;BME280;59039;52.108;19.942;2024-02-23T11:07:46;98961.38;;;10.20;93.77
60920;BME280;59039;52.108;19.942;2024-02-23T11:10:13;98967.09;;;10.22;93.74
60920;BME280;59039;52.108;19.942;2024-02-23T11:12:38;98972.02;;;10.25;93.69
60920;BME280;59039;52.108;19.942;2024-02-23T11:15:04;98973.29;;;10.26;93.40
60920;BME280;59039;52.108;19.942;2024-02-23T11:17:30;98977.73;;;10.28;93.37
60920;BME280;59039;52.108;19.942;2024-02-23T11:20:02;98983.29;;;10.29;93.05
60920;BME280;59039;52.108;19.942;2024-02-23T11:22:31;98995.20;;;10.29;92.96
60920;BME280;59039;52.108;19.942;2024-02-23T11:25:00;98997.36;;;10.31;92.87
60920;BME280;59039;52.108;19.942;2024-02-23T11:27:30;98999.82;;;10.34;93.07
60920;BME280;59039;52.108;19.942;2024-02-23T11:30:07;99004.92;;;10.37;93.28
60920;BME280;59039;52.108;19.942;2024-02-23T11:32:40;99008.58;;;10.40;93.04
60920;BME280;59039;52.108;19.942;2024-02-23T11:35:06;99013.14;;;10.42;92.89
60920;BME280;59039;52.108;19.942;2024-02-23T11:37:32;99018.86;;;10.45;92.76
60920;BME280;59039;52.108;19.942;2024-02-23T11:39:57;99017.55;;;10.48;93.26
60920;BME280;59039;52.108;19.942;2024-02-23T11:42:27;99022.68;;;10.50;92.98
60920;BME280;59039;52.108;19.942;2024-02-23T11:44:52;99024.35;;;10.53;92.76
60920;BME280;59039;52.108;19.942;2024-02-23T11:47:18;99027.15;;;10.55;93.02
60920;BME280;59039;52.108;19.942;2024-02-23T11:49:43;99028.33;;;10.57;92.83
60920;BME280;59039;52.108;19.942;2024-02-23T11:52:09;99029.23;;;10.59;92.57
60920;BME280;59039;52.108;19.942;2024-02-23T11:54:35;99029.56;;;10.61;92.48
60920;BME280;59039;52.108;19.942;2024-02-23T11:57:00;99036.02;;;10.63;92.54
60920;BME280;59039;52.108;19.942;2024-02-23T11:59:25;99038.87;;;10.64;92.54
60920;BME280;59039;52.108;19.942;2024-02-23T12:01:51;99043.88;;;10.66;92.58
60920;BME280;59039;52.108;19.942;2024-02-23T12:04:16;99045.84;;;10.69;92.30
60920;BME280;59039;52.108;19.942;2024-02-23T12:06:44;99049.40;;;10.70;91.83
60920;BME280;59039;52.108;19.942;2024-02-23T12:09:10;99056.81;;;10.73;92.29
60920;BME280;59039;52.108;19.942;2024-02-23T12:11:35;99059.86;;;10.77;92.62
60920;BME280;59039;52.108;19.942;2024-02-23T12:14:01;99057.96;;;10.79;92.37
60920;BME280;59039;52.108;19.942;2024-02-23T12:16:26;99059.38;;;10.82;92.50
60920;BME280;59039;52.108;19.942;2024-02-23T12:18:57;99058.69;;;10.83;92.27
60920;BME280;59039;52.108;19.942;2024-02-23T12:21:23;99061.38;;;10.85;92.04
60920;BME280;59039;52.108;19.942;2024-02-23T12:23:50;99063.45;;;10.86;91.48
60920;BME280;59039;52.108;19.942;2024-02-23T12:26:18;99063.45;;;10.85;91.33
60920;BME280;59039;52.108;19.942;2024-02-23T12:28:44;99068.72;;;10.87;91.73
60920;BME280;59039;52.108;19.942;2024-02-23T12:31:09;99068.98;;;10.86;91.32
60920;BME280;59039;52.108;19.942;2024-02-23T12:33:36;99066.26;;;10.86;91.24
60920;BME280;59039;52.108;19.942;2024-02-23T12:36:03;99069.52;;;10.88;91.69
60920;BME280;59039;52.108;19.942;2024-02-23T12:38:29;99066.20;;;10.88;91.71
60920;BME280;59039;52.108;19.942;2024-02-23T12:40:54;99063.02;;;10.89;91.44
60920;BME280;59039;52.108;19.942;2024-02-23T12:43:20;99065.25;;;10.90;91.62
60920;BME280;59039;52.108;19.942;2024-02-23T12:45:45;99067.44;;;10.90;91.37
60920;BME280;59039;52.108;19.942;2024-02-23T12:48:10;99066.77;;;10.91;91.26
60920;BME280;59039;52.108;19.942;2024-02-23T12:50:36;99067.90;;;10.91;91.22
60920;BME280;59039;52.108;19.942;2024-02-23T12:53:01;99073.08;;;10.91;91.20
60920;BME280;59039;52.108;19.942;2024-02-23T12:55:26;99078.27;;;10.92;91.01
60920;BME280;59039;52.108;19.942;2024-02-23T12:57:51;99081.50;;;10.92;90.92
60920;BME280;59039;52.108;19.942;2024-02-23T13:00:17;99084.96;;;10.92;90.50
60920;BME280;59039;52.108;19.942;2024-02-23T13:02:42;99089.99;;;10.92;90.90
60920;BME280;59039;52.108;19.942;2024-02-23T13:05:07;99093.92;;;10.93;90.85
60920;BME280;59039;52.108;19.942;2024-02-23T13:07:33;99097.11;;;10.93;91.26
60920;BME280;59039;52.108;19.942;2024-02-23T13:09:58;99096.34;;;10.94;91.32
60920;BME280;59039;52.108;19.942;2024-02-23T13:12:23;99091.64;;;10.93;90.96
60920;BME280;59039;52.108;19.942;2024-02-23T13:14:48;99094.39;;;10.93;90.53
60920;BME280;59039;52.108;19.942;2024-02-23T13:17:13;99092.22;;;10.93;90.65
60920;BME280;59039;52.108;19.942;2024-02-23T13:19:39;99093.06;;;10.94;90.70
60920;BME280;59039;52.108;19.942;2024-02-23T13:22:04;99095.04;;;10.94;90.46
60920;BME280;59039;52.108;19.942;2024-02-23T13:24:29;99101.42;;;10.94;90.07
60920;BME280;59039;52.108;19.942;2024-02-23T13:26:54;99108.38;;;10.93;90.38
60920;BME280;59039;52.108;19.942;2024-02-23T13:29:20;99104.44;;;10.93;90.29
60920;BME280;59039;52.108;19.942;2024-02-23T13:31:45;99103.38;;;10.92;90.17
60920;BME280;59039;52.108;19.942;2024-02-23T13:34:10;99109.10;;;10.92;90.31
60920;BME280;59039;52.108;19.942;2024-02-23T13:36:35;99112.63;;;10.91;90.33
60920;BME280;59039;52.108;19.942;2024-02-23T13:39:00;99115.57;;;10.91;90.07
60920;BME280;59039;52.108;19.942;2024-02-23T13:41:26;99116.85;;;10.89;89.88
60920;BME280;59039;52.108;19.942;2024-02-23T13:43:51;99114.82;;;10.88;90.00
60920;BME280;59039;52.108;19.942;2024-02-23T13:46:16;99121.94;;;10.86;90.12
60920;BME280;59039;52.108;19.942;2024-02-23T13:48:41;99130.97;;;10.84;90.30
60920;BME280;59039;52.108;19.942;2024-02-23T13:51:07;99139.64;;;10.83;90.32
60920;BME280;59039;52.108;19.942;2024-02-23T13:53:32;99151.75;;;10.82;90.27
60920;BME280;59039;52.108;19.942;2024-02-23T13:55:57;99155.04;;;10.80;90.22
60920;BME280;59039;52.108;19.942;2024-02-23T13:58:23;99155.39;;;10.79;90.27
60920;BME280;59039;52.108;19.942;2024-02-23T14:00:49;99151.16;;;10.76;90.14
60920;BME280;59039;52.108;19.942;2024-02-23T14:03:16;99151.02;;;10.75;90.13
60920;BME280;59039;52.108;19.942;2024-02-23T14:05:41;99152.37;;;10.73;90.22
60920;BME280;59039;52.108;19.942;2024-02-23T14:08:07;99158.90;;;10.71;90.12
60920;BME280;59039;52.108;19.942;2024-02-23T14:10:32;99164.57;;;10.69;90.40
60920;BME280;59039;52.108;19.942;2024-02-23T14:12:57;99165.93;;;10.68;90.43
60920;BME280;59039;52.108;19.942;2024-02-23T14:15:22;99166.59;;;10.68;90.43
60920;BME280;59039;52.108;19.942;2024-02-23T14:17:47;99162.27;;;10.67;91.00
60920;BME280;59039;52.108;19.942;2024-02-23T14:20:13;99160.52;;;10.67;91.17
60920;BME280;59039;52.108;19.942;2024-02-23T14:22:39;99164.46;;;10.65;91.41
60920;BME280;59039;52.108;19.942;2024-02-23T14:25:04;99162.80;;;10.63;91.34
60920;BME280;59039;52.108;19.942;2024-02-23T14:27:30;99159.75;;;10.61;91.15
60920;BME280;59039;52.108;19.942;2024-02-23T14:29:55;99163.76;;;10.60;91.25
60920;BME280;59039;52.108;19.942;2024-02-23T14:32:20;99169.00;;;10.58;91.42
60920;BME280;59039;52.108;19.942;2024-02-23T14:34:45;99174.65;;;10.56;91.29
60920;BME280;59039;52.108;19.942;2024-02-23T14:37:11;99173.29;;;10.54;91.37
60920;BME280;59039;52.108;19.942;2024-02-23T14:39:36;99177.91;;;10.53;91.39
60920;BME280;59039;52.108;19.942;2024-02-23T14:42:02;99183.66;;;10.52;91.59
60920;BME280;59039;52.108;19.942;2024-02-23T14:44:27;99191.44;;;10.51;91.52
60920;BME280;59039;52.108;19.942;2024-02-23T14:46:53;99197.44;;;10.49;91.65
60920;BME280;59039;52.108;19.942;2024-02-23T14:49:18;99198.55;;;10.47;91.75
60920;BME280;59039;52.108;19.942;2024-02-23T14:51:44;99198.41;;;10.47;91.77
60920;BME280;59039;52.108;19.942;2024-02-23T14:54:09;99195.76;;;10.46;91.74
60920;BME280;59039;52.108;19.942;2024-02-23T14:56:34;99195.37;;;10.45;91.87
60920;BME280;59039;52.108;19.942;2024-02-23T14:58:59;99200.09;;;10.45;91.91
60920;BME280;59039;52.108;19.942;2024-02-23T15:01:25;99199.09;;;10.46;92.16
60920;BME280;59039;52.108;19.942;2024-02-23T15:03:50;99199.43;;;10.46;92.02
60920;BME280;59039;52.108;19.942;2024-02-23T15:06:15;99203.67;;;10.47;92.01
60920;BME280;59039;52.108;19.942;2024-02-23T15:08:40;99200.14;;;10.48;92.36
60920;BME280;59039;52.108;19.942;2024-02-23T15:11:05;99203.45;;;10.49;92.56
60920;BME280;59039;52.108;19.942;2024-02-23T15:13:31;99209.36;;;10.49;92.38
60920;BME280;59039;52.108;19.942;2024-02-23T15:15:56;99214.27;;;10.51;92.52
60920;BME280;59039;52.108;19.942;2024-02-23T15:18:21;99214.90;;;10.51;92.95
60920;BME280;59039;52.108;19.942;2024-02-23T15:20:46;99211.82;;;10.51;93.09